createdAt,value
2018-06-29T00:01:16.963Z,16.60
2018-06-29T00:03:45.504Z,16.60
2018-06-29T00:06:14.101Z,16.50
2018-06-29T00:08:42.651Z,16.50
2018-06-29T00:11:11.228Z,16.50
2018-06-29T00:13:39.756Z,16.40
2018-06-29T00:16:08.598Z,16.50
2018-06-29T00:18:37.484Z,16.40
2018-06-29T00:21:06.354Z,16.30
2018-06-29T00:23:35.223Z,16.30
2018-06-29T00:26:03.923Z,16.20
2018-06-29T00:28:32.456Z,16.20
2018-06-29T00:31:01.031Z,16.20
2018-06-29T00:33:29.583Z,16.10
2018-06-29T00:35:58.133Z,16.10
2018-06-29T00:38:27.001Z,16.00
2018-06-29T00:40:55.866Z,16.00
2018-06-29T00:43:24.773Z,16.00
2018-06-29T00:45:53.748Z,15.90
2018-06-29T00:48:22.603Z,15.80
2018-06-29T00:50:51.480Z,15.80
2018-06-29T00:53:20.373Z,15.80
2018-06-29T00:55:49.257Z,15.80
2018-06-29T00:58:17.945Z,15.70
2018-06-29T01:00:46.471Z,15.70
2018-06-29T01:03:15.323Z,15.60
2018-06-29T01:05:44.181Z,15.60
2018-06-29T01:08:13.118Z,15.50
2018-06-29T01:10:41.981Z,15.40
2018-06-29T01:13:10.841Z,15.30
2018-06-29T01:15:39.775Z,15.10
2018-06-29T01:18:08.747Z,15.00
2018-06-29T01:20:37.908Z,15.10
2018-06-29T01:23:06.873Z,15.20
2018-06-29T01:25:36.023Z,15.20
2018-06-29T01:28:05.076Z,15.40
2018-06-29T01:30:33.896Z,15.90
2018-06-29T01:33:02.721Z,16.10
2018-06-29T01:35:31.540Z,16.20
2018-06-29T01:38:00.432Z,16.30
2018-06-29T01:40:29.363Z,16.20
2018-06-29T01:42:58.194Z,15.90
2018-06-29T01:45:27.746Z,15.70
2018-06-29T01:47:56.686Z,15.50
2018-06-29T01:50:25.577Z,15.40
2018-06-29T01:52:54.796Z,15.30
2018-06-29T01:55:23.728Z,15.10
2018-06-29T01:57:52.612Z,15.00
2018-06-29T02:00:21.548Z,14.90
2018-06-29T02:02:50.491Z,14.80
2018-06-29T02:05:19.508Z,14.70
2018-06-29T02:07:48.463Z,14.60
2018-06-29T02:10:17.448Z,14.50
2018-06-29T02:12:46.406Z,14.40
2018-06-29T02:15:15.358Z,14.40
2018-06-29T02:17:44.348Z,14.40
2018-06-29T02:20:13.365Z,14.40
2018-06-29T02:22:42.278Z,14.40
2018-06-29T02:25:11.213Z,14.40
2018-06-29T02:27:40.161Z,14.40
2018-06-29T02:30:09.217Z,14.40
2018-06-29T02:32:38.115Z,14.40
2018-06-29T02:35:07.061Z,14.40
2018-06-29T02:37:36.001Z,14.30
2018-06-29T02:40:05.318Z,14.30
2018-06-29T02:42:34.275Z,14.30
2018-06-29T02:45:03.225Z,14.30
2018-06-29T02:47:32.187Z,14.20
2018-06-29T02:50:01.083Z,14.20
2018-06-29T02:52:29.931Z,14.20
2018-06-29T02:54:58.773Z,14.30
2018-06-29T02:57:27.979Z,14.20
2018-06-29T02:59:57.895Z,14.00
2018-06-29T03:02:26.716Z,14.00
2018-06-29T03:04:55.608Z,13.90
2018-06-29T03:07:24.512Z,13.80
2018-06-29T03:12:22.621Z,13.80
2018-06-29T03:14:51.567Z,13.70
2018-06-29T03:17:20.601Z,13.70
2018-06-29T03:19:49.523Z,13.80
2018-06-29T03:22:18.228Z,13.80
2018-06-29T03:24:46.928Z,13.70
2018-06-29T03:27:15.615Z,13.60
2018-06-29T03:29:44.315Z,13.70
2018-06-29T03:32:13.095Z,13.70
2018-06-29T03:34:41.785Z,13.60
2018-06-29T03:37:10.415Z,13.50
2018-06-29T03:39:38.963Z,13.50
2018-06-29T03:42:07.588Z,13.50
2018-06-29T03:44:36.463Z,13.60
2018-06-29T03:47:05.643Z,13.60
2018-06-29T03:49:34.589Z,13.70
2018-06-29T03:52:03.600Z,13.70
2018-06-29T03:54:32.518Z,13.70
2018-06-29T03:57:01.433Z,13.90
2018-06-29T03:59:30.363Z,14.10
2018-06-29T04:01:59.273Z,14.10
2018-06-29T04:04:28.295Z,14.20
2018-06-29T04:06:57.258Z,14.30
2018-06-29T04:09:26.200Z,14.50
2018-06-29T04:11:55.240Z,14.60
2018-06-29T04:14:24.129Z,14.80
2018-06-29T04:16:53.081Z,15.00
2018-06-29T04:19:21.955Z,15.10
2018-06-29T04:21:50.825Z,15.40
2018-06-29T04:24:19.773Z,15.30
2018-06-29T04:26:48.640Z,15.30
2018-06-29T04:29:17.561Z,15.30
2018-06-29T04:31:46.380Z,15.20
2018-06-29T04:34:15.002Z,15.30
2018-06-29T04:36:43.570Z,15.50
2018-06-29T04:39:12.182Z,15.70
2018-06-29T04:41:40.730Z,15.80
2018-06-29T04:44:09.400Z,16.00
2018-06-29T04:46:38.310Z,16.20
2018-06-29T04:49:07.200Z,16.50
2018-06-29T04:51:36.086Z,16.80
2018-06-29T04:54:04.992Z,17.00
2018-06-29T04:56:33.888Z,17.40
2018-06-29T04:59:02.745Z,17.60
2018-06-29T05:01:31.602Z,17.50
2018-06-29T05:04:00.450Z,17.90
2018-06-29T05:06:29.443Z,18.20
2018-06-29T05:08:58.297Z,18.50
2018-06-29T05:11:27.155Z,18.80
2018-06-29T05:13:56.010Z,18.80
2018-06-29T05:16:24.675Z,18.80
2018-06-29T05:18:53.270Z,19.00
2018-06-29T05:21:21.795Z,19.00
2018-06-29T05:23:50.340Z,19.00
2018-06-29T05:26:18.935Z,19.50
2018-06-29T05:28:47.530Z,20.00
2018-06-29T05:31:16.063Z,20.40
2018-06-29T05:33:44.673Z,20.40
2018-06-29T05:36:13.299Z,20.40
2018-06-29T05:38:41.849Z,20.70
2018-06-29T05:41:10.533Z,21.00
2018-06-29T05:43:39.120Z,20.50
2018-06-29T05:46:07.758Z,20.60
2018-06-29T05:48:36.408Z,20.80
2018-06-29T05:51:05.007Z,21.20
2018-06-29T05:53:33.535Z,21.60
2018-06-29T05:56:02.203Z,21.80
2018-06-29T05:58:31.029Z,21.50
2018-06-29T06:00:59.680Z,21.10
2018-06-29T06:03:28.368Z,21.20
2018-06-29T06:05:57.498Z,21.20
2018-06-29T06:08:26.339Z,21.50
2018-06-29T06:10:55.487Z,21.20
2018-06-29T06:13:24.772Z,21.40
2018-06-29T06:15:53.811Z,21.50
2018-06-29T06:18:22.644Z,21.60
2018-06-29T06:20:51.415Z,22.00
2018-06-29T06:23:20.865Z,22.40
2018-06-29T06:25:49.597Z,22.70
2018-06-29T06:28:18.755Z,22.90
2018-06-29T06:30:51.228Z,23.10
2018-06-29T06:33:19.838Z,23.10
2018-06-29T06:35:48.684Z,23.30
2018-06-29T06:38:18.451Z,23.40
2018-06-29T06:40:47.559Z,23.40
2018-06-29T06:43:16.511Z,23.60
2018-06-29T06:45:50.238Z,23.80
2018-06-29T06:48:18.878Z,23.90
2018-06-29T06:50:47.516Z,24.20
2018-06-29T06:53:16.104Z,24.30
2018-06-29T06:55:44.736Z,24.40
2018-06-29T06:58:13.591Z,24.20
2018-06-29T07:00:42.503Z,24.70
2018-06-29T07:03:11.417Z,24.80
2018-06-29T07:05:40.318Z,24.60
2018-06-29T07:08:09.056Z,24.70
2018-06-29T07:10:37.653Z,24.70
2018-06-29T07:13:06.320Z,24.90
2018-06-29T07:15:34.933Z,24.90
2018-06-29T07:18:03.783Z,25.20
2018-06-29T07:20:33.383Z,25.50
2018-06-29T07:23:02.331Z,25.70
2018-06-29T07:25:31.263Z,25.50
2018-06-29T07:28:00.030Z,25.40
2018-06-29T07:30:28.966Z,25.20
2018-06-29T07:32:57.915Z,25.20
2018-06-29T07:35:26.878Z,25.40
2018-06-29T07:37:55.953Z,25.50
2018-06-29T07:40:24.858Z,25.70
2018-06-29T07:42:53.788Z,25.80
2018-06-29T07:45:22.713Z,26.20
2018-06-29T07:47:51.597Z,25.80
2018-06-29T07:50:20.570Z,25.80
2018-06-29T07:52:49.324Z,26.10
2018-06-29T07:57:46.508Z,26.50
2018-06-29T08:00:15.152Z,26.70
2018-06-29T08:02:43.963Z,26.60
2018-06-29T08:05:12.874Z,26.90
2018-06-29T08:07:41.691Z,26.70
2018-06-29T08:10:10.561Z,26.80
2018-06-29T08:12:39.249Z,26.90
2018-06-29T08:15:07.892Z,27.10
2018-06-29T08:17:36.443Z,27.20
2018-06-29T08:20:05.058Z,27.20
2018-06-29T08:22:34.029Z,27.50
2018-06-29T08:25:15.745Z,27.90
2018-06-29T08:27:44.955Z,27.90
2018-06-29T08:30:14.556Z,27.70
2018-06-29T08:32:43.492Z,27.90
2018-06-29T08:35:12.183Z,27.90
2018-06-29T08:37:40.705Z,28.00
2018-06-29T08:40:09.873Z,28.20
2018-06-29T08:42:38.620Z,28.20
2018-06-29T08:45:08.694Z,28.40
2018-06-29T08:47:37.523Z,28.00
2018-06-29T08:50:06.604Z,27.80
2018-06-29T08:52:35.505Z,27.90
2018-06-29T08:55:04.883Z,27.80
2018-06-29T08:57:33.430Z,28.00
2018-06-29T09:00:02.033Z,28.00
2018-06-29T09:02:30.643Z,28.00
2018-06-29T09:04:59.281Z,28.10
2018-06-29T09:07:27.838Z,28.40
2018-06-29T09:09:56.403Z,28.60
2018-06-29T09:12:25.021Z,28.60
2018-06-29T09:14:53.648Z,28.90
2018-06-29T09:17:22.440Z,29.10
2018-06-29T09:19:51.389Z,29.20
2018-06-29T09:22:20.288Z,28.90
2018-06-29T09:24:49.614Z,29.20
2018-06-29T09:27:18.647Z,29.40
2018-06-29T09:29:47.251Z,29.30
2018-06-29T09:32:17.831Z,29.30
2018-06-29T09:34:46.383Z,29.30
2018-06-29T09:37:15.296Z,29.60
2018-06-29T09:39:44.248Z,30.00
2018-06-29T09:42:13.168Z,30.10
2018-06-29T09:44:42.557Z,30.20
2018-06-29T09:47:11.506Z,30.00
2018-06-29T09:49:40.415Z,30.40
2018-06-29T09:52:09.383Z,30.20
2018-06-29T09:54:38.411Z,30.70
2018-06-29T09:57:08.196Z,31.00
2018-06-29T09:59:37.244Z,31.00
2018-06-29T10:02:06.258Z,30.80
2018-06-29T10:04:35.741Z,31.00
2018-06-29T10:07:04.576Z,30.80
2018-06-29T10:09:33.143Z,30.20
2018-06-29T10:12:01.776Z,30.30
2018-06-29T10:14:30.454Z,30.90
2018-06-29T10:19:28.393Z,30.40
2018-06-29T10:21:57.368Z,30.70
2018-06-29T10:24:26.234Z,30.90
2018-06-29T10:26:55.216Z,30.80
2018-06-29T10:29:24.083Z,30.40
2018-06-29T10:31:53.076Z,30.00
2018-06-29T10:34:21.933Z,29.80
2018-06-29T10:36:50.625Z,30.20
2018-06-29T10:39:19.301Z,30.40
2018-06-29T10:41:47.905Z,31.00
2018-06-29T10:44:16.463Z,31.30
2018-06-29T10:46:46.181Z,31.60
2018-06-29T10:49:14.783Z,31.90
2018-06-29T10:51:43.436Z,32.00
2018-06-29T10:54:12.014Z,31.80
2018-06-29T10:56:40.844Z,31.70
2018-06-29T10:59:09.776Z,32.00
2018-06-29T11:01:38.666Z,32.00
2018-06-29T11:04:07.563Z,32.20
2018-06-29T11:06:36.224Z,32.40
2018-06-29T11:09:08.503Z,31.50
2018-06-29T11:11:37.144Z,30.60
2018-06-29T11:14:06.510Z,30.90
2018-06-29T11:16:37.184Z,31.00
2018-06-29T11:19:05.831Z,30.50
2018-06-29T11:21:34.461Z,29.70
2018-06-29T11:24:03.026Z,29.30
2018-06-29T11:26:31.603Z,30.10
2018-06-29T11:29:00.171Z,30.80
2018-06-29T11:31:28.774Z,31.60
2018-06-29T11:33:57.464Z,32.00
2018-06-29T11:36:26.559Z,32.00
2018-06-29T11:38:55.187Z,31.50
2018-06-29T11:41:23.854Z,30.80
2018-06-29T11:43:52.424Z,30.60
2018-06-29T11:46:22.249Z,31.30
2018-06-29T11:48:51.164Z,32.20
2018-06-29T11:51:20.104Z,32.60
2018-06-29T11:53:49.025Z,31.70
2018-06-29T11:56:18.025Z,31.60
2018-06-29T11:58:47.036Z,32.20
2018-06-29T12:01:21.274Z,32.20
2018-06-29T12:03:50.849Z,32.60
2018-06-29T12:06:22.123Z,33.30
2018-06-29T12:08:50.937Z,33.00
2018-06-29T12:11:19.582Z,32.00
2018-06-29T12:13:48.575Z,30.80
2018-06-29T12:16:17.232Z,29.70
2018-06-29T12:18:45.807Z,29.80
2018-06-29T12:21:14.409Z,31.00
2018-06-29T12:23:43.219Z,31.90
2018-06-29T12:26:12.802Z,32.70
2018-06-29T12:28:41.764Z,32.90
2018-06-29T12:31:10.676Z,33.20
2018-06-29T12:33:39.549Z,33.30
2018-06-29T12:36:08.519Z,32.70
2018-06-29T12:38:37.391Z,31.80
2018-06-29T12:41:06.489Z,31.80
2018-06-29T12:43:35.574Z,32.60
2018-06-29T12:46:04.309Z,33.00
2018-06-29T12:48:32.899Z,33.30
2018-06-29T12:51:01.606Z,33.40
2018-06-29T12:53:31.157Z,33.50
2018-06-29T12:56:00.133Z,33.20
2018-06-29T12:58:29.641Z,32.50
2018-06-29T13:00:58.626Z,32.00
2018-06-29T13:03:27.572Z,31.50
2018-06-29T13:05:56.559Z,30.90
2018-06-29T13:08:25.623Z,31.10
2018-06-29T13:10:54.463Z,31.70
2018-06-29T13:13:23.318Z,31.50
2018-06-29T13:15:52.170Z,30.70
2018-06-29T13:18:20.794Z,30.90
2018-06-29T13:20:52.444Z,31.30
2018-06-29T13:23:21.061Z,32.20
2018-06-29T13:25:50.029Z,31.90
2018-06-29T13:28:18.631Z,31.80
2018-06-29T13:30:47.561Z,31.00
2018-06-29T13:33:16.923Z,30.70
2018-06-29T13:35:45.728Z,30.50
2018-06-29T13:38:14.621Z,30.10
2018-06-29T13:40:44.349Z,29.90
2018-06-29T13:43:13.266Z,29.70
2018-06-29T13:45:41.931Z,29.70
2018-06-29T13:48:10.578Z,29.30
2018-06-29T13:50:39.156Z,29.20
2018-06-29T13:53:07.778Z,29.30
2018-06-29T13:55:36.543Z,30.00
2018-06-29T13:58:05.447Z,31.20
2018-06-29T14:00:34.385Z,31.90
2018-06-29T14:03:03.271Z,32.00
2018-06-29T14:05:31.968Z,32.20
2018-06-29T14:08:00.549Z,32.10
2018-06-29T14:10:29.438Z,32.10
2018-06-29T14:12:58.013Z,31.90
2018-06-29T14:15:26.565Z,31.70
2018-06-29T14:17:55.179Z,31.50
2018-06-29T14:20:23.703Z,31.50
2018-06-29T14:22:52.281Z,31.60
2018-06-29T14:25:21.094Z,31.80
2018-06-29T14:27:50.923Z,31.70
2018-06-29T14:30:19.888Z,31.80
2018-06-29T14:32:49.206Z,31.70
2018-06-29T14:35:18.111Z,31.50
2018-06-29T14:37:47.013Z,31.80
2018-06-29T14:40:15.908Z,32.10
2018-06-29T14:42:44.748Z,32.80
2018-06-29T14:45:13.405Z,32.80
2018-06-29T14:47:41.979Z,33.00
2018-06-29T14:50:10.577Z,33.10
2018-06-29T14:52:39.180Z,33.60
2018-06-29T14:55:07.976Z,33.80
2018-06-29T14:57:36.908Z,33.30
2018-06-29T15:00:09.249Z,32.50
2018-06-29T15:02:38.625Z,31.90
2018-06-29T15:05:07.309Z,32.00
2018-06-29T15:07:35.922Z,32.20
2018-06-29T15:10:04.874Z,32.60
2018-06-29T15:12:33.467Z,32.80
2018-06-29T15:15:02.004Z,33.00
2018-06-29T15:17:30.556Z,32.40
2018-06-29T15:19:59.090Z,31.90
2018-06-29T15:22:27.636Z,31.90
2018-06-29T15:24:56.484Z,32.00
2018-06-29T15:27:25.324Z,32.00
2018-06-29T15:29:54.994Z,32.00
2018-06-29T15:32:23.904Z,32.20
2018-06-29T15:34:52.819Z,32.30
2018-06-29T15:37:21.707Z,32.70
2018-06-29T15:39:50.649Z,32.80
2018-06-29T15:42:19.524Z,33.10
2018-06-29T15:44:49.175Z,33.00
2018-06-29T15:49:46.706Z,33.20
2018-06-29T15:52:15.654Z,33.20
2018-06-29T15:54:44.369Z,33.40
2018-06-29T15:57:12.943Z,33.30
2018-06-29T15:59:41.792Z,33.10
2018-06-29T16:02:10.786Z,33.20
2018-06-29T16:04:39.695Z,33.10
2018-06-29T16:07:08.276Z,33.20
2018-06-29T16:09:36.844Z,33.40
2018-06-29T16:12:05.466Z,33.30
2018-06-29T16:14:34.079Z,32.10
2018-06-29T16:17:02.654Z,31.30
2018-06-29T16:19:31.191Z,31.50
2018-06-29T16:21:59.806Z,32.00
2018-06-29T16:24:28.560Z,31.40
2018-06-29T16:26:58.381Z,30.70
2018-06-29T16:29:28.282Z,30.10
2018-06-29T16:31:57.196Z,30.00
2018-06-29T16:34:26.055Z,29.80
2018-06-29T16:36:55.043Z,30.10
2018-06-29T16:39:23.972Z,30.50
2018-06-29T16:41:53.446Z,30.90
2018-06-29T16:44:24.331Z,31.00
2018-06-29T16:46:53.221Z,30.70
2018-06-29T16:49:22.111Z,30.00
2018-06-29T16:51:51.076Z,29.20
2018-06-29T16:54:20.084Z,29.10
2018-06-29T16:56:49.176Z,29.20
2018-06-29T16:59:17.999Z,29.60
2018-06-29T17:01:47.514Z,29.70
2018-06-29T17:04:16.436Z,29.90
2018-06-29T17:06:45.411Z,30.00
2018-06-29T17:11:42.964Z,30.20
2018-06-29T17:14:11.676Z,30.10
2018-06-29T17:19:08.654Z,28.90
2018-06-29T17:21:37.684Z,28.30
2018-06-29T17:26:35.749Z,27.60
2018-06-29T17:29:04.856Z,27.30
2018-06-29T17:31:34.825Z,27.20
2018-06-29T17:34:03.947Z,27.10
2018-06-29T17:36:32.811Z,27.00
2018-06-29T17:39:03.836Z,26.90
2018-06-29T17:41:32.688Z,26.80
2018-06-29T17:44:02.098Z,26.60
2018-06-29T17:46:32.236Z,26.60
2018-06-29T17:49:01.166Z,26.60
2018-06-29T17:51:30.056Z,26.50
2018-06-29T17:53:59.586Z,26.50
2018-06-29T17:56:28.393Z,26.50
2018-06-29T17:58:57.310Z,26.40
2018-06-29T18:01:26.290Z,26.20
2018-06-29T18:03:55.879Z,26.30
2018-06-29T18:06:24.586Z,26.20
2018-06-29T18:08:53.206Z,26.10
2018-06-29T18:11:22.148Z,26.00
2018-06-29T18:13:50.937Z,25.90
2018-06-29T18:16:19.847Z,25.80
2018-06-29T18:18:48.879Z,25.70
2018-06-29T18:21:18.217Z,25.60
2018-06-29T18:23:46.989Z,25.50
2018-06-29T18:26:16.953Z,25.40
2018-06-29T18:28:45.531Z,25.30
2018-06-29T18:31:14.157Z,25.20
2018-06-29T18:33:42.951Z,25.20
2018-06-29T18:36:11.887Z,25.10
2018-06-29T18:38:40.811Z,25.00
2018-06-29T18:41:10.004Z,25.00
2018-06-29T18:43:38.894Z,25.00
2018-06-29T18:46:07.793Z,24.90
2018-06-29T18:48:36.671Z,24.90
2018-06-29T18:51:05.547Z,24.80
2018-06-29T18:53:34.283Z,24.70
2018-06-29T18:56:03.501Z,24.60
2018-06-29T18:58:32.061Z,24.50
2018-06-29T19:01:00.704Z,24.40
2018-06-29T19:03:29.597Z,24.30
2018-06-29T19:05:58.456Z,24.20
2018-06-29T19:08:27.313Z,24.10
2018-06-29T19:10:56.308Z,23.90
2018-06-29T19:13:24.996Z,23.80
2018-06-29T19:15:53.548Z,23.70
2018-06-29T19:18:22.371Z,23.60
2018-06-29T19:20:50.986Z,23.60
2018-06-29T19:23:19.608Z,23.60
2018-06-29T19:25:48.191Z,23.50
2018-06-29T19:28:16.836Z,23.40
2018-06-29T19:30:45.590Z,23.30
2018-06-29T19:33:14.401Z,23.10
2018-06-29T19:35:43.504Z,23.00
2018-06-29T19:38:12.490Z,22.80
2018-06-29T19:40:41.468Z,22.70
2018-06-29T19:43:11.034Z,22.60
2018-06-29T19:45:39.673Z,22.60
2018-06-29T19:48:08.330Z,22.50
2018-06-29T19:50:51.768Z,22.50
2018-06-29T19:53:20.568Z,22.40
2018-06-29T19:55:49.238Z,22.30
2018-06-29T19:58:17.883Z,22.30
2018-06-29T20:00:46.469Z,22.20
2018-06-29T20:03:15.329Z,22.10
2018-06-29T20:05:44.966Z,22.00
2018-06-29T20:08:14.393Z,22.00
2018-06-29T20:10:43.296Z,21.90
2018-06-29T20:13:12.648Z,21.90
2018-06-29T20:15:42.446Z,21.80
2018-06-29T20:18:11.451Z,21.80
2018-06-29T20:20:41.023Z,21.80
2018-06-29T20:23:09.695Z,21.80
2018-06-29T20:25:38.951Z,21.70
2018-06-29T20:28:07.574Z,21.60
2018-06-29T20:30:36.187Z,21.60
2018-06-29T20:33:04.804Z,21.60
2018-06-29T20:35:33.339Z,21.60
2018-06-29T20:38:02.338Z,21.50
2018-06-29T20:40:31.196Z,21.50
2018-06-29T20:43:00.492Z,21.40
2018-06-29T20:45:29.158Z,21.40
2018-06-29T20:47:57.701Z,21.30
2018-06-29T20:50:26.376Z,21.30
2018-06-29T20:52:55.070Z,21.40
2018-06-29T20:55:23.642Z,21.50
2018-06-29T20:57:52.266Z,21.40
2018-06-29T21:00:20.796Z,21.30
2018-06-29T21:02:49.462Z,21.30
2018-06-29T21:05:18.282Z,21.20
2018-06-29T21:07:47.180Z,21.20
2018-06-29T21:10:16.119Z,21.20
2018-06-29T21:12:45.054Z,21.20
2018-06-29T21:15:13.781Z,21.10
2018-06-29T21:17:42.488Z,21.10
2018-06-29T21:20:11.236Z,21.10
2018-06-29T21:22:39.848Z,21.50
2018-06-29T21:25:08.681Z,21.70
2018-06-29T21:27:37.516Z,21.80
2018-06-29T21:30:07.471Z,21.80
2018-06-29T21:32:36.496Z,21.90
2018-06-29T21:35:05.786Z,21.90
2018-06-29T21:37:34.656Z,21.90
2018-06-29T21:40:03.666Z,21.90
2018-06-29T21:42:32.571Z,21.90
2018-06-29T21:45:01.530Z,21.90
2018-06-29T21:47:30.356Z,22.00
2018-06-29T21:49:59.403Z,21.90
2018-06-29T21:52:28.262Z,21.70
2018-06-29T21:54:56.908Z,21.50
2018-06-29T21:57:25.488Z,21.30
2018-06-29T21:59:53.998Z,21.20
2018-06-29T22:02:22.567Z,21.40
2018-06-29T22:04:54.095Z,21.60
2018-06-29T22:07:23.218Z,21.60
2018-06-29T22:09:58.616Z,21.50
2018-06-29T22:12:27.606Z,21.10
2018-06-29T22:14:56.533Z,20.80
2018-06-29T22:17:25.508Z,20.50
2018-06-29T22:19:54.398Z,20.30
2018-06-29T22:22:23.265Z,20.30
2018-06-29T22:24:52.128Z,20.20
2018-06-29T22:27:21.226Z,20.10
2018-06-29T22:29:50.106Z,20.10
2018-06-29T22:32:18.963Z,19.80
2018-06-29T22:34:47.826Z,19.30
2018-06-29T22:37:16.744Z,19.30
2018-06-29T22:39:45.630Z,19.30
2018-06-29T22:42:14.516Z,19.30
2018-06-29T22:44:43.236Z,19.40
2018-06-29T22:47:11.778Z,19.50
2018-06-29T22:49:40.301Z,19.90
2018-06-29T22:52:08.864Z,20.30
2018-06-29T22:54:37.649Z,20.70
2018-06-29T22:57:06.511Z,20.90
2018-06-29T22:59:36.061Z,21.10
2018-06-29T23:02:04.954Z,21.00
2018-06-29T23:04:34.917Z,21.10
2018-06-29T23:07:03.904Z,21.00
2018-06-29T23:09:32.962Z,21.10
2018-06-29T23:12:01.831Z,21.00
2018-06-29T23:14:30.499Z,20.80
2018-06-29T23:16:59.059Z,20.70
2018-06-29T23:19:28.300Z,20.10
2018-06-29T23:21:56.819Z,19.50
2018-06-29T23:24:25.638Z,19.00
2018-06-29T23:26:54.764Z,18.50
2018-06-29T23:29:23.637Z,18.30
2018-06-29T23:31:52.606Z,18.30
2018-06-29T23:34:21.293Z,18.30
2018-06-29T23:36:49.861Z,18.30
2018-06-29T23:39:18.361Z,18.30
2018-06-29T23:41:46.889Z,18.20
2018-06-29T23:44:15.456Z,18.20
2018-06-29T23:46:44.033Z,18.30
2018-06-29T23:49:12.631Z,18.30
2018-06-29T23:51:41.254Z,18.60
2018-06-29T23:54:10.031Z,18.70
2018-06-29T23:56:38.961Z,19.10
2018-06-29T23:59:07.973Z,19.30
